sensor_id;sensor_type;location;lat;lon;timestamp;temperature;humidity
19342;DHT22;9807;48.258;12.690;2023-08-31T00:00:15;17.30;99.90
19342;DHT22;9807;48.258;12.690;2023-08-31T00:02:41;17.40;99.90
19342;DHT22;9807;48.258;12.690;2023-08-31T00:05:07;17.40;99.90
19342;DHT22;9807;48.258;12.690;2023-08-31T00:07:33;17.20;99.90
19342;DHT22;9807;48.258;12.690;2023-08-31T00:09:58;17.10;99.90
19342;DHT22;9807;48.258;12.690;2023-08-31T00:12:28;17.10;99.90
19342;DHT22;9807;48.258;12.690;2023-08-31T00:14:54;17.20;99.90
19342;DHT22;9807;48.258;12.690;2023-08-31T00:17:19;17.10;99.90
19342;DHT22;9807;48.258;12.690;2023-08-31T00:19:45;17.10;99.90
19342;DHT22;9807;48.258;12.690;2023-08-31T00:22:11;17.00;99.90
19342;DHT22;9807;48.258;12.690;2023-08-31T00:24:36;16.60;99.90
19342;DHT22;9807;48.258;12.690;2023-08-31T00:27:05;16.20;99.90
19342;DHT22;9807;48.258;12.690;2023-08-31T00:29:32;15.90;99.90
19342;DHT22;9807;48.258;12.690;2023-08-31T00:31:57;15.90;99.90
19342;DHT22;9807;48.258;12.690;2023-08-31T00:34:23;16.00;99.90
19342;DHT22;9807;48.258;12.690;2023-08-31T00:36:49;16.20;99.90
19342;DHT22;9807;48.258;12.690;2023-08-31T00:39:15;16.40;99.90
19342;DHT22;9807;48.258;12.690;2023-08-31T00:41:43;16.50;99.90
19342;DHT22;9807;48.258;12.690;2023-08-31T00:44:13;16.70;99.90
19342;DHT22;9807;48.258;12.690;2023-08-31T00:46:40;16.80;99.90
19342;DHT22;9807;48.258;12.690;2023-08-31T00:49:07;17.00;99.90
19342;DHT22;9807;48.258;12.690;2023-08-31T00:51:33;17.10;99.90
19342;DHT22;9807;48.258;12.690;2023-08-31T00:53:59;17.20;99.90
19342;DHT22;9807;48.258;12.690;2023-08-31T00:56:28;17.20;99.90
19342;DHT22;9807;48.258;12.690;2023-08-31T00:58:54;17.20;99.90
19342;DHT22;9807;48.258;12.690;2023-08-31T01:01:34;17.30;99.90
19342;DHT22;9807;48.258;12.690;2023-08-31T01:09:43;17.20;99.90
19342;DHT22;9807;48.258;12.690;2023-08-31T01:12:14;17.20;99.90
19342;DHT22;9807;48.258;12.690;2023-08-31T01:14:56;17.20;99.90
19342;DHT22;9807;48.258;12.690;2023-08-31T01:17:29;17.00;99.90
19342;DHT22;9807;48.258;12.690;2023-08-31T01:19:59;16.70;99.90
19342;DHT22;9807;48.258;12.690;2023-08-31T01:25:03;16.50;99.90
19342;DHT22;9807;48.258;12.690;2023-08-31T01:27:31;16.20;99.90
19342;DHT22;9807;48.258;12.690;2023-08-31T01:29:57;16.30;99.90
19342;DHT22;9807;48.258;12.690;2023-08-31T01:32:23;16.40;99.90
19342;DHT22;9807;48.258;12.690;2023-08-31T01:34:50;16.30;99.90
19342;DHT22;9807;48.258;12.690;2023-08-31T01:37:26;16.50;99.90
19342;DHT22;9807;48.258;12.690;2023-08-31T01:40:09;16.60;99.90
19342;DHT22;9807;48.258;12.690;2023-08-31T01:42:38;16.80;99.90
19342;DHT22;9807;48.258;12.690;2023-08-31T01:45:05;16.90;99.90
19342;DHT22;9807;48.258;12.690;2023-08-31T01:47:31;17.00;99.90
19342;DHT22;9807;48.258;12.690;2023-08-31T01:49:57;16.90;99.90
19342;DHT22;9807;48.258;12.690;2023-08-31T01:52:23;16.70;99.90
19342;DHT22;9807;48.258;12.690;2023-08-31T01:54:49;16.60;99.90
19342;DHT22;9807;48.258;12.690;2023-08-31T01:57:15;16.50;99.90
19342;DHT22;9807;48.258;12.690;2023-08-31T01:59:40;16.70;99.90
19342;DHT22;9807;48.258;12.690;2023-08-31T02:02:09;16.80;99.90
19342;DHT22;9807;48.258;12.690;2023-08-31T02:04:35;16.80;99.90
19342;DHT22;9807;48.258;12.690;2023-08-31T02:07:01;16.90;99.90
19342;DHT22;9807;48.258;12.690;2023-08-31T02:09:26;16.90;99.90
19342;DHT22;9807;48.258;12.690;2023-08-31T02:11:52;16.90;99.90
19342;DHT22;9807;48.258;12.690;2023-08-31T02:14:18;16.70;99.90
19342;DHT22;9807;48.258;12.690;2023-08-31T02:16:44;16.70;99.90
19342;DHT22;9807;48.258;12.690;2023-08-31T02:19:10;16.80;99.90
19342;DHT22;9807;48.258;12.690;2023-08-31T02:21:35;16.90;99.90
19342;DHT22;9807;48.258;12.690;2023-08-31T02:24:01;16.90;99.90
19342;DHT22;9807;48.258;12.690;2023-08-31T02:26:26;16.80;99.90
19342;DHT22;9807;48.258;12.690;2023-08-31T02:28:52;16.90;99.90
19342;DHT22;9807;48.258;12.690;2023-08-31T02:31:18;16.90;99.90
19342;DHT22;9807;48.258;12.690;2023-08-31T02:33:46;16.90;99.90
19342;DHT22;9807;48.258;12.690;2023-08-31T02:36:11;16.90;99.90
19342;DHT22;9807;48.258;12.690;2023-08-31T02:38:37;16.90;99.90
19342;DHT22;9807;48.258;12.690;2023-08-31T02:41:03;16.90;99.90
19342;DHT22;9807;48.258;12.690;2023-08-31T02:43:29;16.90;99.90
19342;DHT22;9807;48.258;12.690;2023-08-31T02:46:02;16.90;99.90
19342;DHT22;9807;48.258;12.690;2023-08-31T02:48:28;16.90;99.90
19342;DHT22;9807;48.258;12.690;2023-08-31T02:50:58;16.90;99.90
19342;DHT22;9807;48.258;12.690;2023-08-31T02:53:29;16.90;99.90
19342;DHT22;9807;48.258;12.690;2023-08-31T02:55:55;16.80;99.90
19342;DHT22;9807;48.258;12.690;2023-08-31T02:58:21;16.70;99.90
19342;DHT22;9807;48.258;12.690;2023-08-31T03:00:46;16.70;99.90
19342;DHT22;9807;48.258;12.690;2023-08-31T03:03:16;16.60;99.90
19342;DHT22;9807;48.258;12.690;2023-08-31T03:05:42;16.60;99.90
19342;DHT22;9807;48.258;12.690;2023-08-31T03:08:08;16.70;99.90
19342;DHT22;9807;48.258;12.690;2023-08-31T03:10:34;16.70;99.90
19342;DHT22;9807;48.258;12.690;2023-08-31T03:13:00;16.70;99.90
19342;DHT22;9807;48.258;12.690;2023-08-31T03:15:28;16.60;99.90
19342;DHT22;9807;48.258;12.690;2023-08-31T03:17:54;16.60;99.90
19342;DHT22;9807;48.258;12.690;2023-08-31T03:20:20;16.60;99.90
19342;DHT22;9807;48.258;12.690;2023-08-31T03:22:46;16.60;99.90
19342;DHT22;9807;48.258;12.690;2023-08-31T03:25:11;16.50;99.90
19342;DHT22;9807;48.258;12.690;2023-08-31T03:27:37;16.10;99.90
19342;DHT22;9807;48.258;12.690;2023-08-31T03:30:03;15.80;99.90
19342;DHT22;9807;48.258;12.690;2023-08-31T03:32:29;15.80;99.90
19342;DHT22;9807;48.258;12.690;2023-08-31T03:34:55;15.70;99.90
19342;DHT22;9807;48.258;12.690;2023-08-31T03:37:21;15.50;99.90
19342;DHT22;9807;48.258;12.690;2023-08-31T03:39:50;15.60;99.90
19342;DHT22;9807;48.258;12.690;2023-08-31T03:42:16;15.70;99.90
19342;DHT22;9807;48.258;12.690;2023-08-31T03:44:42;15.90;99.90
19342;DHT22;9807;48.258;12.690;2023-08-31T03:47:07;16.10;99.90
19342;DHT22;9807;48.258;12.690;2023-08-31T03:49:33;16.20;99.90
19342;DHT22;9807;48.258;12.690;2023-08-31T03:52:00;16.40;99.90
19342;DHT22;9807;48.258;12.690;2023-08-31T03:54:26;16.40;99.90
19342;DHT22;9807;48.258;12.690;2023-08-31T03:56:52;16.40;99.90
19342;DHT22;9807;48.258;12.690;2023-08-31T03:59:18;16.50;99.90
19342;DHT22;9807;48.258;12.690;2023-08-31T04:01:46;16.40;99.90
19342;DHT22;9807;48.258;12.690;2023-08-31T04:04:12;16.40;99.90
19342;DHT22;9807;48.258;12.690;2023-08-31T04:06:37;16.50;99.90
19342;DHT22;9807;48.258;12.690;2023-08-31T04:09:03;16.50;99.90
19342;DHT22;9807;48.258;12.690;2023-08-31T04:11:29;16.60;99.90
19342;DHT22;9807;48.258;12.690;2023-08-31T04:13:55;16.70;99.90
19342;DHT22;9807;48.258;12.690;2023-08-31T04:16:21;16.70;99.90
19342;DHT22;9807;48.258;12.690;2023-08-31T04:18:46;16.70;99.90
19342;DHT22;9807;48.258;12.690;2023-08-31T04:21:17;16.80;99.90
19342;DHT22;9807;48.258;12.690;2023-08-31T04:23:43;16.80;99.90
19342;DHT22;9807;48.258;12.690;2023-08-31T04:26:12;16.70;99.90
19342;DHT22;9807;48.258;12.690;2023-08-31T04:28:41;16.40;99.90
19342;DHT22;9807;48.258;12.690;2023-08-31T04:31:08;15.90;99.90
19342;DHT22;9807;48.258;12.690;2023-08-31T04:33:38;15.40;99.90
19342;DHT22;9807;48.258;12.690;2023-08-31T04:36:04;15.20;99.90
19342;DHT22;9807;48.258;12.690;2023-08-31T04:38:34;15.10;99.90
19342;DHT22;9807;48.258;12.690;2023-08-31T04:41:01;15.10;99.90
19342;DHT22;9807;48.258;12.690;2023-08-31T04:43:27;15.10;99.90
19342;DHT22;9807;48.258;12.690;2023-08-31T04:45:53;14.90;99.90
19342;DHT22;9807;48.258;12.690;2023-08-31T04:48:19;14.60;99.90
19342;DHT22;9807;48.258;12.690;2023-08-31T04:50:45;14.30;99.90
19342;DHT22;9807;48.258;12.690;2023-08-31T04:53:11;14.00;99.90
19342;DHT22;9807;48.258;12.690;2023-08-31T04:55:36;13.90;99.90
19342;DHT22;9807;48.258;12.690;2023-08-31T04:58:03;13.80;99.90
19342;DHT22;9807;48.258;12.690;2023-08-31T05:00:32;14.00;99.90
19342;DHT22;9807;48.258;12.690;2023-08-31T05:02:57;14.10;99.90
19342;DHT22;9807;48.258;12.690;2023-08-31T05:05:23;14.10;99.90
19342;DHT22;9807;48.258;12.690;2023-08-31T05:07:49;14.20;99.90
19342;DHT22;9807;48.258;12.690;2023-08-31T05:10:15;14.20;99.90
19342;DHT22;9807;48.258;12.690;2023-08-31T05:12:42;14.30;99.90
19342;DHT22;9807;48.258;12.690;2023-08-31T05:15:08;14.30;99.90
19342;DHT22;9807;48.258;12.690;2023-08-31T05:17:35;14.20;99.90
19342;DHT22;9807;48.258;12.690;2023-08-31T05:20:01;14.20;99.90
19342;DHT22;9807;48.258;12.690;2023-08-31T05:22:29;14.30;99.90
19342;DHT22;9807;48.258;12.690;2023-08-31T05:24:54;14.50;99.90
19342;DHT22;9807;48.258;12.690;2023-08-31T05:27:26;14.50;99.90
19342;DHT22;9807;48.258;12.690;2023-08-31T05:29:52;14.60;99.90
19342;DHT22;9807;48.258;12.690;2023-08-31T05:32:18;14.70;99.90
19342;DHT22;9807;48.258;12.690;2023-08-31T05:34:44;14.80;99.90
19342;DHT22;9807;48.258;12.690;2023-08-31T05:37:09;15.00;99.90
19342;DHT22;9807;48.258;12.690;2023-08-31T05:39:35;15.10;99.90
19342;DHT22;9807;48.258;12.690;2023-08-31T05:42:01;15.10;99.90
19342;DHT22;9807;48.258;12.690;2023-08-31T05:44:27;15.10;99.90
19342;DHT22;9807;48.258;12.690;2023-08-31T05:46:53;15.00;99.90
19342;DHT22;9807;48.258;12.690;2023-08-31T05:49:18;14.80;99.90
19342;DHT22;9807;48.258;12.690;2023-08-31T05:51:44;14.70;99.90
19342;DHT22;9807;48.258;12.690;2023-08-31T05:54:10;14.60;99.90
19342;DHT22;9807;48.258;12.690;2023-08-31T05:56:38;14.60;99.90
19342;DHT22;9807;48.258;12.690;2023-08-31T05:59:05;14.50;99.90
19342;DHT22;9807;48.258;12.690;2023-08-31T06:01:31;14.50;99.90
19342;DHT22;9807;48.258;12.690;2023-08-31T06:03:57;14.50;99.90
19342;DHT22;9807;48.258;12.690;2023-08-31T06:06:23;14.40;99.90
19342;DHT22;9807;48.258;12.690;2023-08-31T06:08:49;14.40;99.90
19342;DHT22;9807;48.258;12.690;2023-08-31T06:11:15;14.60;99.90
19342;DHT22;9807;48.258;12.690;2023-08-31T06:13:40;14.60;99.90
19342;DHT22;9807;48.258;12.690;2023-08-31T06:16:06;14.70;99.90
19342;DHT22;9807;48.258;12.690;2023-08-31T06:18:32;14.70;99.90
19342;DHT22;9807;48.258;12.690;2023-08-31T06:20:58;14.80;99.90
19342;DHT22;9807;48.258;12.690;2023-08-31T06:23:23;14.90;99.90
19342;DHT22;9807;48.258;12.690;2023-08-31T06:25:49;15.00;99.90
19342;DHT22;9807;48.258;12.690;2023-08-31T06:28:15;15.10;99.90
19342;DHT22;9807;48.258;12.690;2023-08-31T06:30:41;15.00;99.90
19342;DHT22;9807;48.258;12.690;2023-08-31T06:33:12;14.90;99.90
19342;DHT22;9807;48.258;12.690;2023-08-31T06:35:39;14.90;99.90
19342;DHT22;9807;48.258;12.690;2023-08-31T06:38:05;14.90;99.90
19342;DHT22;9807;48.258;12.690;2023-08-31T06:40:31;15.00;99.90
19342;DHT22;9807;48.258;12.690;2023-08-31T06:42:56;15.10;99.90
19342;DHT22;9807;48.258;12.690;2023-08-31T06:45:22;15.00;99.90
19342;DHT22;9807;48.258;12.690;2023-08-31T06:47:48;15.00;99.90
19342;DHT22;9807;48.258;12.690;2023-08-31T06:50:16;15.00;99.90
19342;DHT22;9807;48.258;12.690;2023-08-31T06:52:42;15.00;99.90
19342;DHT22;9807;48.258;12.690;2023-08-31T06:55:08;15.00;99.90
19342;DHT22;9807;48.258;12.690;2023-08-31T06:57:36;14.90;99.90
19342;DHT22;9807;48.258;12.690;2023-08-31T07:00:03;14.90;99.90
19342;DHT22;9807;48.258;12.690;2023-08-31T07:02:29;15.10;99.90
19342;DHT22;9807;48.258;12.690;2023-08-31T07:04:55;15.20;99.90
19342;DHT22;9807;48.258;12.690;2023-08-31T07:07:20;15.20;99.90
19342;DHT22;9807;48.258;12.690;2023-08-31T07:09:46;15.40;99.90
19342;DHT22;9807;48.258;12.690;2023-08-31T07:12:16;15.40;99.90
19342;DHT22;9807;48.258;12.690;2023-08-31T07:14:41;15.40;99.90
19342;DHT22;9807;48.258;12.690;2023-08-31T07:17:07;15.40;99.90
19342;DHT22;9807;48.258;12.690;2023-08-31T07:19:36;15.40;99.90
19342;DHT22;9807;48.258;12.690;2023-08-31T07:22:02;15.60;99.90
19342;DHT22;9807;48.258;12.690;2023-08-31T07:24:29;15.60;99.90
19342;DHT22;9807;48.258;12.690;2023-08-31T07:26:55;15.50;99.90
19342;DHT22;9807;48.258;12.690;2023-08-31T07:29:21;15.50;99.90
19342;DHT22;9807;48.258;12.690;2023-08-31T07:31:47;15.50;99.90
19342;DHT22;9807;48.258;12.690;2023-08-31T07:34:13;15.50;99.90
19342;DHT22;9807;48.258;12.690;2023-08-31T07:36:39;15.50;99.90
19342;DHT22;9807;48.258;12.690;2023-08-31T07:39:05;15.60;99.90
19342;DHT22;9807;48.258;12.690;2023-08-31T07:41:31;15.60;99.90
19342;DHT22;9807;48.258;12.690;2023-08-31T07:43:56;15.60;99.90
19342;DHT22;9807;48.258;12.690;2023-08-31T07:46:22;15.60;99.90
19342;DHT22;9807;48.258;12.690;2023-08-31T07:48:50;15.70;99.90
19342;DHT22;9807;48.258;12.690;2023-08-31T07:51:16;15.90;99.90
19342;DHT22;9807;48.258;12.690;2023-08-31T07:53:42;16.00;99.90
19342;DHT22;9807;48.258;12.690;2023-08-31T07:56:07;16.20;99.90
19342;DHT22;9807;48.258;12.690;2023-08-31T07:58:36;16.50;99.90
19342;DHT22;9807;48.258;12.690;2023-08-31T08:01:02;16.50;99.90
19342;DHT22;9807;48.258;12.690;2023-08-31T08:03:27;16.60;99.90
19342;DHT22;9807;48.258;12.690;2023-08-31T08:05:53;16.50;99.90
19342;DHT22;9807;48.258;12.690;2023-08-31T08:08:21;16.40;99.90
19342;DHT22;9807;48.258;12.690;2023-08-31T08:10:46;16.40;99.90
19342;DHT22;9807;48.258;12.690;2023-08-31T08:13:12;16.30;99.90
19342;DHT22;9807;48.258;12.690;2023-08-31T08:15:38;16.20;99.90
19342;DHT22;9807;48.258;12.690;2023-08-31T08:18:04;16.00;99.90
19342;DHT22;9807;48.258;12.690;2023-08-31T08:20:30;15.90;99.90
19342;DHT22;9807;48.258;12.690;2023-08-31T08:22:56;15.90;99.90
19342;DHT22;9807;48.258;12.690;2023-08-31T08:25:23;15.90;99.90
19342;DHT22;9807;48.258;12.690;2023-08-31T08:27:50;16.00;99.90
19342;DHT22;9807;48.258;12.690;2023-08-31T08:30:16;16.00;99.90
19342;DHT22;9807;48.258;12.690;2023-08-31T08:32:47;16.00;99.90
19342;DHT22;9807;48.258;12.690;2023-08-31T08:35:16;16.20;99.90
19342;DHT22;9807;48.258;12.690;2023-08-31T08:37:41;16.10;99.90
19342;DHT22;9807;48.258;12.690;2023-08-31T08:40:09;16.30;99.90
19342;DHT22;9807;48.258;12.690;2023-08-31T08:42:40;16.40;99.90
19342;DHT22;9807;48.258;12.690;2023-08-31T08:45:12;16.50;99.90
19342;DHT22;9807;48.258;12.690;2023-08-31T08:47:43;16.70;99.90
19342;DHT22;9807;48.258;12.690;2023-08-31T08:50:11;16.90;99.90
19342;DHT22;9807;48.258;12.690;2023-08-31T08:52:41;16.90;99.90
19342;DHT22;9807;48.258;12.690;2023-08-31T08:55:08;17.00;99.90
19342;DHT22;9807;48.258;12.690;2023-08-31T08:57:35;17.10;99.90
19342;DHT22;9807;48.258;12.690;2023-08-31T09:00:04;17.10;99.90
19342;DHT22;9807;48.258;12.690;2023-08-31T09:02:30;17.20;99.90
19342;DHT22;9807;48.258;12.690;2023-08-31T09:04:56;17.30;99.90
19342;DHT22;9807;48.258;12.690;2023-08-31T09:07:22;17.30;99.90
19342;DHT22;9807;48.258;12.690;2023-08-31T09:09:51;17.20;99.90
19342;DHT22;9807;48.258;12.690;2023-08-31T09:12:17;17.20;99.90
19342;DHT22;9807;48.258;12.690;2023-08-31T09:14:59;17.20;99.90
19342;DHT22;9807;48.258;12.690;2023-08-31T09:17:38;17.30;99.90
19342;DHT22;9807;48.258;12.690;2023-08-31T09:20:04;17.50;99.90
19342;DHT22;9807;48.258;12.690;2023-08-31T09:22:30;17.60;99.90
19342;DHT22;9807;48.258;12.690;2023-08-31T09:24:56;17.80;99.90
19342;DHT22;9807;48.258;12.690;2023-08-31T09:27:21;17.80;99.90
19342;DHT22;9807;48.258;12.690;2023-08-31T09:29:54;17.90;99.90
19342;DHT22;9807;48.258;12.690;2023-08-31T09:32:20;18.00;99.90
19342;DHT22;9807;48.258;12.690;2023-08-31T09:34:46;18.10;99.90
19342;DHT22;9807;48.258;12.690;2023-08-31T09:37:15;18.10;99.90
19342;DHT22;9807;48.258;12.690;2023-08-31T09:39:41;18.30;99.90
19342;DHT22;9807;48.258;12.690;2023-08-31T09:42:07;18.40;99.90
19342;DHT22;9807;48.258;12.690;2023-08-31T09:44:32;18.50;99.90
19342;DHT22;9807;48.258;12.690;2023-08-31T09:47:01;18.70;99.90
19342;DHT22;9807;48.258;12.690;2023-08-31T09:49:28;18.70;99.90
19342;DHT22;9807;48.258;12.690;2023-08-31T09:51:54;18.60;99.90
19342;DHT22;9807;48.258;12.690;2023-08-31T09:54:21;18.70;99.90
19342;DHT22;9807;48.258;12.690;2023-08-31T09:56:55;18.60;99.90
19342;DHT22;9807;48.258;12.690;2023-08-31T09:59:22;18.40;99.90
19342;DHT22;9807;48.258;12.690;2023-08-31T10:01:48;18.10;99.90
19342;DHT22;9807;48.258;12.690;2023-08-31T10:04:14;17.90;99.90
19342;DHT22;9807;48.258;12.690;2023-08-31T10:06:41;17.80;99.90
19342;DHT22;9807;48.258;12.690;2023-08-31T10:09:07;17.80;99.90
19342;DHT22;9807;48.258;12.690;2023-08-31T10:11:38;17.80;99.90
19342;DHT22;9807;48.258;12.690;2023-08-31T10:14:04;17.80;99.90
19342;DHT22;9807;48.258;12.690;2023-08-31T10:16:32;17.80;99.90
19342;DHT22;9807;48.258;12.690;2023-08-31T10:18:58;17.70;99.90
19342;DHT22;9807;48.258;12.690;2023-08-31T10:21:23;17.70;99.90
19342;DHT22;9807;48.258;12.690;2023-08-31T10:23:53;17.80;99.90
19342;DHT22;9807;48.258;12.690;2023-08-31T10:26:30;18.00;99.90
19342;DHT22;9807;48.258;12.690;2023-08-31T10:28:56;18.30;99.90
19342;DHT22;9807;48.258;12.690;2023-08-31T10:31:23;18.30;99.90
19342;DHT22;9807;48.258;12.690;2023-08-31T10:33:58;18.20;99.90
19342;DHT22;9807;48.258;12.690;2023-08-31T10:39:05;17.70;99.90
19342;DHT22;9807;48.258;12.690;2023-08-31T10:41:35;17.70;99.90
19342;DHT22;9807;48.258;12.690;2023-08-31T10:44:01;17.60;99.90
19342;DHT22;9807;48.258;12.690;2023-08-31T10:46:33;17.60;99.90
19342;DHT22;9807;48.258;12.690;2023-08-31T10:51:35;17.50;99.90
19342;DHT22;9807;48.258;12.690;2023-08-31T10:54:08;17.40;99.90
19342;DHT22;9807;48.258;12.690;2023-08-31T10:59:25;17.70;99.90
19342;DHT22;9807;48.258;12.690;2023-08-31T11:01:58;17.90;99.90
19342;DHT22;9807;48.258;12.690;2023-08-31T11:04:27;17.80;99.90
19342;DHT22;9807;48.258;12.690;2023-08-31T11:07:16;17.70;99.90
19342;DHT22;9807;48.258;12.690;2023-08-31T11:09:42;17.60;99.90
19342;DHT22;9807;48.258;12.690;2023-08-31T11:12:09;17.40;99.90
19342;DHT22;9807;48.258;12.690;2023-08-31T11:14:36;17.20;99.90
19342;DHT22;9807;48.258;12.690;2023-08-31T11:17:02;17.10;99.90
19342;DHT22;9807;48.258;12.690;2023-08-31T11:19:31;17.10;99.90
19342;DHT22;9807;48.258;12.690;2023-08-31T11:21:57;17.00;99.90
19342;DHT22;9807;48.258;12.690;2023-08-31T11:24:23;17.00;99.90
19342;DHT22;9807;48.258;12.690;2023-08-31T11:26:52;17.00;99.90
19342;DHT22;9807;48.258;12.690;2023-08-31T11:29:17;17.10;99.90
19342;DHT22;9807;48.258;12.690;2023-08-31T11:31:44;17.10;99.90
19342;DHT22;9807;48.258;12.690;2023-08-31T11:34:15;17.00;99.90
19342;DHT22;9807;48.258;12.690;2023-08-31T11:36:46;16.90;99.90
19342;DHT22;9807;48.258;12.690;2023-08-31T11:39:12;16.90;99.90
19342;DHT22;9807;48.258;12.690;2023-08-31T11:41:38;17.00;99.90
19342;DHT22;9807;48.258;12.690;2023-08-31T11:44:08;17.00;99.90
19342;DHT22;9807;48.258;12.690;2023-08-31T11:46:37;17.40;99.90
19342;DHT22;9807;48.258;12.690;2023-08-31T11:49:04;17.80;99.90
19342;DHT22;9807;48.258;12.690;2023-08-31T11:51:30;18.20;99.90
19342;DHT22;9807;48.258;12.690;2023-08-31T11:53:57;18.50;99.90
19342;DHT22;9807;48.258;12.690;2023-08-31T11:56:26;18.70;99.90
19342;DHT22;9807;48.258;12.690;2023-08-31T11:58:51;18.80;99.90
19342;DHT22;9807;48.258;12.690;2023-08-31T12:01:19;19.00;99.90
19342;DHT22;9807;48.258;12.690;2023-08-31T12:03:45;18.90;99.90
19342;DHT22;9807;48.258;12.690;2023-08-31T12:06:15;19.00;99.90
19342;DHT22;9807;48.258;12.690;2023-08-31T12:08:41;19.20;99.90
19342;DHT22;9807;48.258;12.690;2023-08-31T12:11:10;19.40;99.90
19342;DHT22;9807;48.258;12.690;2023-08-31T12:13:36;19.60;99.90
19342;DHT22;9807;48.258;12.690;2023-08-31T12:16:01;19.60;99.90
19342;DHT22;9807;48.258;12.690;2023-08-31T12:18:30;19.60;99.90
19342;DHT22;9807;48.258;12.690;2023-08-31T12:20:57;19.60;99.90
19342;DHT22;9807;48.258;12.690;2023-08-31T12:23:23;19.60;99.90
19342;DHT22;9807;48.258;12.690;2023-08-31T12:25:50;19.70;99.90
19342;DHT22;9807;48.258;12.690;2023-08-31T12:28:17;19.70;99.90
19342;DHT22;9807;48.258;12.690;2023-08-31T12:30:48;19.80;99.90
19342;DHT22;9807;48.258;12.690;2023-08-31T12:33:14;19.90;99.90
19342;DHT22;9807;48.258;12.690;2023-08-31T12:35:40;20.00;99.90
19342;DHT22;9807;48.258;12.690;2023-08-31T12:38:06;20.00;99.90
19342;DHT22;9807;48.258;12.690;2023-08-31T12:40:32;20.10;99.90
19342;DHT22;9807;48.258;12.690;2023-08-31T12:43:01;20.10;99.90
19342;DHT22;9807;48.258;12.690;2023-08-31T12:45:28;20.00;99.90
19342;DHT22;9807;48.258;12.690;2023-08-31T12:47:53;20.10;99.90
19342;DHT22;9807;48.258;12.690;2023-08-31T12:50:19;20.20;99.90
19342;DHT22;9807;48.258;12.690;2023-08-31T12:52:47;20.30;99.90
19342;DHT22;9807;48.258;12.690;2023-08-31T12:55:16;20.50;99.90
19342;DHT22;9807;48.258;12.690;2023-08-31T12:57:43;20.70;99.90
19342;DHT22;9807;48.258;12.690;2023-08-31T13:00:12;20.80;99.90
19342;DHT22;9807;48.258;12.690;2023-08-31T13:02:38;20.90;99.90
19342;DHT22;9807;48.258;12.690;2023-08-31T13:05:05;20.90;99.90
19342;DHT22;9807;48.258;12.690;2023-08-31T13:07:31;20.60;99.90
19342;DHT22;9807;48.258;12.690;2023-08-31T13:10:00;20.40;99.90
19342;DHT22;9807;48.258;12.690;2023-08-31T13:12:29;19.90;99.90
19342;DHT22;9807;48.258;12.690;2023-08-31T13:14:55;19.80;99.90
19342;DHT22;9807;48.258;12.690;2023-08-31T13:17:21;19.80;99.90
19342;DHT22;9807;48.258;12.690;2023-08-31T13:19:52;19.70;99.90
19342;DHT22;9807;48.258;12.690;2023-08-31T13:22:18;19.60;99.90
19342;DHT22;9807;48.258;12.690;2023-08-31T13:24:44;19.50;99.90
19342;DHT22;9807;48.258;12.690;2023-08-31T13:27:10;19.60;99.90
19342;DHT22;9807;48.258;12.690;2023-08-31T13:29:35;19.70;99.90
19342;DHT22;9807;48.258;12.690;2023-08-31T13:32:01;19.80;99.90
19342;DHT22;9807;48.258;12.690;2023-08-31T13:34:26;20.00;99.90
19342;DHT22;9807;48.258;12.690;2023-08-31T13:36:52;20.00;99.90
19342;DHT22;9807;48.258;12.690;2023-08-31T13:39:18;19.90;99.90
19342;DHT22;9807;48.258;12.690;2023-08-31T13:41:44;20.00;99.90
19342;DHT22;9807;48.258;12.690;2023-08-31T13:44:11;20.10;99.90
19342;DHT22;9807;48.258;12.690;2023-08-31T13:46:37;20.10;99.90
19342;DHT22;9807;48.258;12.690;2023-08-31T13:49:02;20.30;99.90
19342;DHT22;9807;48.258;12.690;2023-08-31T13:51:28;20.40;99.90
19342;DHT22;9807;48.258;12.690;2023-08-31T13:53:54;20.40;99.90
19342;DHT22;9807;48.258;12.690;2023-08-31T13:56:20;20.50;99.90
19342;DHT22;9807;48.258;12.690;2023-08-31T13:58:45;20.60;99.90
19342;DHT22;9807;48.258;12.690;2023-08-31T14:01:11;20.60;99.90
19342;DHT22;9807;48.258;12.690;2023-08-31T14:03:39;20.70;99.90
19342;DHT22;9807;48.258;12.690;2023-08-31T14:06:04;20.40;99.90
19342;DHT22;9807;48.258;12.690;2023-08-31T14:08:30;20.30;99.90
19342;DHT22;9807;48.258;12.690;2023-08-31T14:10:56;20.10;99.90
19342;DHT22;9807;48.258;12.690;2023-08-31T14:13:22;20.20;99.90
19342;DHT22;9807;48.258;12.690;2023-08-31T14:15:47;20.20;99.90
19342;DHT22;9807;48.258;12.690;2023-08-31T14:18:14;20.20;99.90
19342;DHT22;9807;48.258;12.690;2023-08-31T14:20:40;20.10;99.90
19342;DHT22;9807;48.258;12.690;2023-08-31T14:23:06;20.10;99.90
19342;DHT22;9807;48.258;12.690;2023-08-31T14:25:37;20.10;99.90
19342;DHT22;9807;48.258;12.690;2023-08-31T14:28:04;20.30;99.90
19342;DHT22;9807;48.258;12.690;2023-08-31T14:30:30;20.20;99.90
19342;DHT22;9807;48.258;12.690;2023-08-31T14:32:56;20.10;99.90
19342;DHT22;9807;48.258;12.690;2023-08-31T14:35:22;19.80;99.90
19342;DHT22;9807;48.258;12.690;2023-08-31T14:37:47;19.70;99.90
19342;DHT22;9807;48.258;12.690;2023-08-31T14:40:14;19.70;99.90
19342;DHT22;9807;48.258;12.690;2023-08-31T14:42:40;19.70;99.90
19342;DHT22;9807;48.258;12.690;2023-08-31T14:45:06;19.90;99.90
19342;DHT22;9807;48.258;12.690;2023-08-31T14:47:32;20.00;99.90
19342;DHT22;9807;48.258;12.690;2023-08-31T14:49:58;20.10;99.90
19342;DHT22;9807;48.258;12.690;2023-08-31T14:52:23;20.20;99.90
19342;DHT22;9807;48.258;12.690;2023-08-31T14:54:49;20.20;99.90
19342;DHT22;9807;48.258;12.690;2023-08-31T14:57:15;20.10;99.90
19342;DHT22;9807;48.258;12.690;2023-08-31T14:59:41;20.10;99.90
19342;DHT22;9807;48.258;12.690;2023-08-31T15:02:07;20.00;99.90
19342;DHT22;9807;48.258;12.690;2023-08-31T15:04:33;20.10;99.90
19342;DHT22;9807;48.258;12.690;2023-08-31T15:06:59;20.10;99.90
19342;DHT22;9807;48.258;12.690;2023-08-31T15:09:28;20.20;99.90
19342;DHT22;9807;48.258;12.690;2023-08-31T15:11:54;20.10;99.90
19342;DHT22;9807;48.258;12.690;2023-08-31T15:14:19;20.00;99.90
19342;DHT22;9807;48.258;12.690;2023-08-31T15:16:46;20.00;99.90
19342;DHT22;9807;48.258;12.690;2023-08-31T15:19:11;20.00;99.90
19342;DHT22;9807;48.258;12.690;2023-08-31T15:21:37;20.10;99.90
19342;DHT22;9807;48.258;12.690;2023-08-31T15:24:03;20.10;99.90
19342;DHT22;9807;48.258;12.690;2023-08-31T15:26:29;20.00;99.90
19342;DHT22;9807;48.258;12.690;2023-08-31T15:28:55;19.70;99.90
19342;DHT22;9807;48.258;12.690;2023-08-31T15:31:21;19.50;99.90
19342;DHT22;9807;48.258;12.690;2023-08-31T15:33:47;19.40;99.90
19342;DHT22;9807;48.258;12.690;2023-08-31T15:36:14;19.20;99.90
19342;DHT22;9807;48.258;12.690;2023-08-31T15:38:39;19.20;99.90
19342;DHT22;9807;48.258;12.690;2023-08-31T15:41:07;19.10;99.90
19342;DHT22;9807;48.258;12.690;2023-08-31T15:43:34;19.10;99.90